sensor_id;sensor_type;location;lat;lon;timestamp;pressure;altitude;pressure_sealevel;temperature;humidity
49311;BME280;35177;45.900;5.946;2023-09-19T00:01:58;97790.28;;;15.67;100.00
49311;BME280;35177;45.900;5.946;2023-09-19T00:04:24;97792.94;;;15.67;100.00
49311;BME280;35177;45.900;5.946;2023-09-19T00:06:54;97792.22;;;15.65;100.00
49311;BME280;35177;45.900;5.946;2023-09-19T00:09:19;97793.19;;;15.64;100.00
49311;BME280;35177;45.900;5.946;2023-09-19T00:11:45;97801.06;;;15.66;100.00
49311;BME280;35177;45.900;5.946;2023-09-19T00:14:12;97789.28;;;15.68;100.00
49311;BME280;35177;45.900;5.946;2023-09-19T00:16:39;97800.00;;;15.57;100.00
49311;BME280;35177;45.900;5.946;2023-09-19T00:19:06;97789.34;;;15.57;100.00
49311;BME280;35177;45.900;5.946;2023-09-19T00:21:32;97794.19;;;15.63;100.00
49311;BME280;35177;45.900;5.946;2023-09-19T00:23:57;97782.44;;;15.55;100.00
49311;BME280;35177;45.900;5.946;2023-09-19T00:26:23;97783.28;;;15.55;100.00
49311;BME280;35177;45.900;5.946;2023-09-19T00:28:52;97783.53;;;15.52;100.00
49311;BME280;35177;45.900;5.946;2023-09-19T00:31:17;97780.75;;;15.54;100.00
49311;BME280;35177;45.900;5.946;2023-09-19T00:33:43;97784.00;;;15.57;100.00
49311;BME280;35177;45.900;5.946;2023-09-19T00:36:08;97791.28;;;15.55;100.00
49311;BME280;35177;45.900;5.946;2023-09-19T00:38:34;97792.28;;;15.43;100.00
49311;BME280;35177;45.900;5.946;2023-09-19T00:40:59;97782.69;;;15.41;100.00
49311;BME280;35177;45.900;5.946;2023-09-19T00:43:25;97779.78;;;15.44;100.00
49311;BME280;35177;45.900;5.946;2023-09-19T00:45:52;97769.03;;;15.34;100.00
49311;BME280;35177;45.900;5.946;2023-09-19T00:48:20;97766.50;;;15.32;100.00
49311;BME280;35177;45.900;5.946;2023-09-19T00:50:46;97762.81;;;15.02;100.00
49311;BME280;35177;45.900;5.946;2023-09-19T00:53:19;97769.41;;;14.87;100.00
49311;BME280;35177;45.900;5.946;2023-09-19T00:55:46;97777.63;;;14.95;100.00
49311;BME280;35177;45.900;5.946;2023-09-19T00:58:12;97772.25;;;15.06;100.00
49311;BME280;35177;45.900;5.946;2023-09-19T01:00:38;97773.44;;;15.13;100.00
49311;BME280;35177;45.900;5.946;2023-09-19T01:03:05;97781.44;;;15.13;100.00
49311;BME280;35177;45.900;5.946;2023-09-19T01:05:33;97785.09;;;15.12;100.00
49311;BME280;35177;45.900;5.946;2023-09-19T01:07:58;97790.78;;;15.18;100.00
49311;BME280;35177;45.900;5.946;2023-09-19T01:10:24;97801.34;;;15.09;100.00
49311;BME280;35177;45.900;5.946;2023-09-19T01:13:03;97791.53;;;15.09;100.00
49311;BME280;35177;45.900;5.946;2023-09-19T01:21:11;97786.75;;;15.35;100.00
49311;BME280;35177;45.900;5.946;2023-09-19T01:29:39;97790.59;;;15.53;100.00
49311;BME280;35177;45.900;5.946;2023-09-19T01:32:06;97789.72;;;15.53;100.00
49311;BME280;35177;45.900;5.946;2023-09-19T01:34:48;97788.28;;;15.49;100.00
49311;BME280;35177;45.900;5.946;2023-09-19T01:37:17;97792.06;;;15.46;100.00
49311;BME280;35177;45.900;5.946;2023-09-19T01:39:50;97795.06;;;15.53;100.00
49311;BME280;35177;45.900;5.946;2023-09-19T01:47:32;97780.88;;;15.41;100.00
49311;BME280;35177;45.900;5.946;2023-09-19T01:53:02;97783.34;;;15.44;100.00
49311;BME280;35177;45.900;5.946;2023-09-19T01:55:30;97771.69;;;15.34;100.00
49311;BME280;35177;45.900;5.946;2023-09-19T01:58:15;97777.28;;;15.31;100.00
49311;BME280;35177;45.900;5.946;2023-09-19T02:00:43;97780.94;;;15.30;100.00
49311;BME280;35177;45.900;5.946;2023-09-19T02:03:11;97785.91;;;15.23;100.00
49311;BME280;35177;45.900;5.946;2023-09-19T02:05:37;97785.34;;;15.09;100.00
49311;BME280;35177;45.900;5.946;2023-09-19T02:08:04;97785.09;;;15.12;100.00
49311;BME280;35177;45.900;5.946;2023-09-19T02:10:30;97784.13;;;15.13;100.00
49311;BME280;35177;45.900;5.946;2023-09-19T02:12:55;97783.88;;;15.16;100.00
49311;BME280;35177;45.900;5.946;2023-09-19T02:15:21;97779.03;;;15.21;100.00
49311;BME280;35177;45.900;5.946;2023-09-19T02:17:47;97774.88;;;15.28;100.00
49311;BME280;35177;45.900;5.946;2023-09-19T02:20:13;97782.03;;;15.27;100.00
49311;BME280;35177;45.900;5.946;2023-09-19T02:22:42;97787.03;;;15.21;100.00
49311;BME280;35177;45.900;5.946;2023-09-19T02:25:08;97785.44;;;15.18;100.00
49311;BME280;35177;45.900;5.946;2023-09-19T02:27:34;97785.22;;;15.21;100.00
49311;BME280;35177;45.900;5.946;2023-09-19T02:29:59;97783.97;;;15.25;100.00
49311;BME280;35177;45.900;5.946;2023-09-19T02:32:27;97783.84;;;15.27;100.00
49311;BME280;35177;45.900;5.946;2023-09-19T02:34:55;97784.56;;;15.29;100.00
49311;BME280;35177;45.900;5.946;2023-09-19T02:37:20;97777.41;;;15.29;100.00
49311;BME280;35177;45.900;5.946;2023-09-19T02:39:46;97774.03;;;15.27;100.00
49311;BME280;35177;45.900;5.946;2023-09-19T02:42:12;97784.44;;;15.30;100.00
49311;BME280;35177;45.900;5.946;2023-09-19T02:44:37;97778.50;;;15.27;100.00
49311;BME280;35177;45.900;5.946;2023-09-19T02:47:03;97780.06;;;15.29;100.00
49311;BME280;35177;45.900;5.946;2023-09-19T02:49:29;97774.59;;;15.31;100.00
49311;BME280;35177;45.900;5.946;2023-09-19T02:51:54;97775.34;;;15.33;100.00
49311;BME280;35177;45.900;5.946;2023-09-19T02:54:20;97773.03;;;15.40;100.00
49311;BME280;35177;45.900;5.946;2023-09-19T02:56:46;97781.13;;;15.38;100.00
49311;BME280;35177;45.900;5.946;2023-09-19T02:59:12;97780.56;;;15.35;100.00
49311;BME280;35177;45.900;5.946;2023-09-19T03:01:38;97778.47;;;15.38;100.00
49311;BME280;35177;45.900;5.946;2023-09-19T03:04:04;97782.84;;;15.39;100.00
49311;BME280;35177;45.900;5.946;2023-09-19T03:06:36;97783.09;;;15.36;100.00
49311;BME280;35177;45.900;5.946;2023-09-19T03:09:02;97775.34;;;15.33;100.00
49311;BME280;35177;45.900;5.946;2023-09-19T03:11:29;97764.47;;;15.25;100.00
49311;BME280;35177;45.900;5.946;2023-09-19T03:13:54;97779.69;;;15.34;100.00
49311;BME280;35177;45.900;5.946;2023-09-19T03:16:20;97779.94;;;15.31;100.00
49311;BME280;35177;45.900;5.946;2023-09-19T03:18:47;97783.34;;;15.33;100.00
49311;BME280;35177;45.900;5.946;2023-09-19T03:21:17;97786.97;;;15.32;100.00
49311;BME280;35177;45.900;5.946;2023-09-19T03:23:44;97789.88;;;15.29;100.00
49311;BME280;35177;45.900;5.946;2023-09-19T03:26:13;97779.84;;;15.32;100.00
49311;BME280;35177;45.900;5.946;2023-09-19T03:28:42;97779.56;;;15.36;100.00
49311;BME280;35177;45.900;5.946;2023-09-19T03:31:08;97781.41;;;15.35;100.00
49311;BME280;35177;45.900;5.946;2023-09-19T03:33:34;97786.75;;;15.35;100.00
49311;BME280;35177;45.900;5.946;2023-09-19T03:36:01;97790.84;;;15.39;100.00
49311;BME280;35177;45.900;5.946;2023-09-19T03:38:29;97781.25;;;15.37;100.00
49311;BME280;35177;45.900;5.946;2023-09-19T03:40:55;97782.88;;;15.28;100.00
49311;BME280;35177;45.900;5.946;2023-09-19T03:43:20;97773.50;;;15.33;100.00
49311;BME280;35177;45.900;5.946;2023-09-19T03:45:46;97778.03;;;15.33;100.00
49311;BME280;35177;45.900;5.946;2023-09-19T03:48:12;97779.13;;;15.30;100.00
49311;BME280;35177;45.900;5.946;2023-09-19T03:50:38;97776.91;;;15.36;100.00
49311;BME280;35177;45.900;5.946;2023-09-19T03:53:04;97782.13;;;15.37;100.00
49311;BME280;35177;45.900;5.946;2023-09-19T03:55:30;97786.25;;;15.30;100.00
49311;BME280;35177;45.900;5.946;2023-09-19T03:57:56;97791.22;;;15.35;100.00
49311;BME280;35177;45.900;5.946;2023-09-19T04:00:22;97792.56;;;15.29;100.00
49311;BME280;35177;45.900;5.946;2023-09-19T04:02:51;97785.53;;;15.28;100.00
49311;BME280;35177;45.900;5.946;2023-09-19T04:05:16;97786.75;;;15.35;100.00
49311;BME280;35177;45.900;5.946;2023-09-19T04:07:42;97774.38;;;15.34;100.00
49311;BME280;35177;45.900;5.946;2023-09-19T04:10:07;97781.41;;;15.35;100.00
49311;BME280;35177;45.900;5.946;2023-09-19T04:12:34;97784.19;;;15.33;100.00
49311;BME280;35177;45.900;5.946;2023-09-19T04:14:59;97788.94;;;15.30;100.00
49311;BME280;35177;45.900;5.946;2023-09-19T04:17:25;97774.22;;;15.36;100.00
49311;BME280;35177;45.900;5.946;2023-09-19T04:19:51;97780.56;;;15.35;100.00
49311;BME280;35177;45.900;5.946;2023-09-19T04:22:16;97777.03;;;15.34;100.00
49311;BME280;35177;45.900;5.946;2023-09-19T04:24:41;97783.78;;;15.38;100.00
49311;BME280;35177;45.900;5.946;2023-09-19T04:27:07;97778.34;;;15.40;100.00
49311;BME280;35177;45.900;5.946;2023-09-19T04:29:33;97780.69;;;15.44;100.00
49311;BME280;35177;45.900;5.946;2023-09-19T04:31:58;97781.38;;;15.46;100.00
49311;BME280;35177;45.900;5.946;2023-09-19T04:34:24;97778.00;;;15.44;100.00
49311;BME280;35177;45.900;5.946;2023-09-19T04:36:50;97787.69;;;15.45;100.00
49311;BME280;35177;45.900;5.946;2023-09-19T04:39:15;97789.38;;;15.46;100.00
49311;BME280;35177;45.900;5.946;2023-09-19T04:41:42;97794.94;;;15.43;100.00
49311;BME280;35177;45.900;5.946;2023-09-19T04:44:07;97794.09;;;15.43;100.00
49311;BME280;35177;45.900;5.946;2023-09-19T04:46:34;97792.28;;;15.43;100.00
49311;BME280;35177;45.900;5.946;2023-09-19T04:48:59;97798.59;;;15.42;100.00
49311;BME280;35177;45.900;5.946;2023-09-19T04:51:24;97798.34;;;15.45;100.00
49311;BME280;35177;45.900;5.946;2023-09-19T04:53:52;97810.09;;;15.43;100.00
49311;BME280;35177;45.900;5.946;2023-09-19T04:56:17;97809.03;;;15.45;100.00
49311;BME280;35177;45.900;5.946;2023-09-19T04:58:42;97809.78;;;15.47;100.00
49311;BME280;35177;45.900;5.946;2023-09-19T05:01:08;97804.28;;;15.49;100.00
49311;BME280;35177;45.900;5.946;2023-09-19T05:03:37;97804.28;;;15.49;100.00
49311;BME280;35177;45.900;5.946;2023-09-19T05:06:02;97815.09;;;15.47;100.00
49311;BME280;35177;45.900;5.946;2023-09-19T05:08:29;97813.00;;;15.51;100.00
49311;BME280;35177;45.900;5.946;2023-09-19T05:10:54;97819.44;;;15.48;100.00
49311;BME280;35177;45.900;5.946;2023-09-19T05:13:21;97819.44;;;15.48;100.00
49311;BME280;35177;45.900;5.946;2023-09-19T05:15:48;97831.09;;;15.47;100.00
49311;BME280;35177;45.900;5.946;2023-09-19T05:18:15;97826.72;;;15.46;100.00
49311;BME280;35177;45.900;5.946;2023-09-19T05:20:41;97829.53;;;15.45;100.00
49311;BME280;35177;45.900;5.946;2023-09-19T05:23:07;97837.75;;;15.53;100.00
49311;BME280;35177;45.900;5.946;2023-09-19T05:25:35;97840.75;;;15.59;100.00
49311;BME280;35177;45.900;5.946;2023-09-19T05:28:08;97847.91;;;15.59;100.00
49311;BME280;35177;45.900;5.946;2023-09-19T05:30:35;97853.50;;;15.56;100.00
49311;BME280;35177;45.900;5.946;2023-09-19T05:33:08;97847.44;;;15.54;100.00
49311;BME280;35177;45.900;5.946;2023-09-19T05:35:34;97847.91;;;15.59;100.00
49311;BME280;35177;45.900;5.946;2023-09-19T05:38:04;97850.44;;;15.60;100.00
49311;BME280;35177;45.900;5.946;2023-09-19T05:40:33;97850.22;;;15.63;100.00
49311;BME280;35177;45.900;5.946;2023-09-19T05:43:00;97851.88;;;15.64;100.00
49311;BME280;35177;45.900;5.946;2023-09-19T05:45:26;97856.25;;;15.65;100.00
49311;BME280;35177;45.900;5.946;2023-09-19T05:47:53;97860.59;;;15.66;100.00
49311;BME280;35177;45.900;5.946;2023-09-19T05:50:29;97859.41;;;15.59;100.00
49311;BME280;35177;45.900;5.946;2023-09-19T05:52:55;97862.13;;;15.48;100.00
49311;BME280;35177;45.900;5.946;2023-09-19T05:55:23;97862.97;;;15.49;100.00
49311;BME280;35177;45.900;5.946;2023-09-19T05:57:52;97868.41;;;15.58;100.00
49311;BME280;35177;45.900;5.946;2023-09-19T06:00:22;97867.06;;;15.53;100.00
49311;BME280;35177;45.900;5.946;2023-09-19T06:02:54;97868.66;;;15.55;100.00
49311;BME280;35177;45.900;5.946;2023-09-19T06:05:21;97868.66;;;15.55;100.00
49311;BME280;35177;45.900;5.946;2023-09-19T06:07:46;97867.94;;;15.53;100.00
49311;BME280;35177;45.900;5.946;2023-09-19T06:10:12;97872.91;;;15.47;100.00
49311;BME280;35177;45.900;5.946;2023-09-19T06:12:44;97871.81;;;15.49;100.00
49311;BME280;35177;45.900;5.946;2023-09-19T06:15:11;97876.16;;;15.50;100.00
49311;BME280;35177;45.900;5.946;2023-09-19T06:17:49;97872.75;;;15.59;100.00
49311;BME280;35177;45.900;5.946;2023-09-19T06:20:15;97876.28;;;15.60;100.00
49311;BME280;35177;45.900;5.946;2023-09-19T06:22:42;97885.13;;;15.60;100.00
49311;BME280;35177;45.900;5.946;2023-09-19T06:25:12;97882.31;;;15.62;100.00
49311;BME280;35177;45.900;5.946;2023-09-19T06:27:39;97878.81;;;15.61;100.00
49311;BME280;35177;45.900;5.946;2023-09-19T06:30:08;97885.72;;;15.64;100.00
49311;BME280;35177;45.900;5.946;2023-09-19T06:32:34;97890.66;;;15.68;100.00
49311;BME280;35177;45.900;5.946;2023-09-19T06:34:59;97890.22;;;15.63;100.00
49311;BME280;35177;45.900;5.946;2023-09-19T06:37:27;97889.00;;;15.67;100.00
49311;BME280;35177;45.900;5.946;2023-09-19T06:39:53;97890.47;;;15.60;100.00
49311;BME280;35177;45.900;5.946;2023-09-19T06:42:18;97882.66;;;15.68;100.00
49311;BME280;35177;45.900;5.946;2023-09-19T06:44:44;97884.84;;;15.74;100.00
49311;BME280;35177;45.900;5.946;2023-09-19T06:47:09;97884.22;;;15.82;100.00
49311;BME280;35177;45.900;5.946;2023-09-19T06:49:36;97880.19;;;15.87;100.00
49311;BME280;35177;45.900;5.946;2023-09-19T06:52:02;97888.72;;;15.81;100.00
49311;BME280;35177;45.900;5.946;2023-09-19T06:54:28;97887.94;;;15.90;100.00
49311;BME280;35177;45.900;5.946;2023-09-19T06:56:56;97888.81;;;15.91;100.00
49311;BME280;35177;45.900;5.946;2023-09-19T06:59:24;97887.44;;;15.96;100.00
49311;BME280;35177;45.900;5.946;2023-09-19T07:01:49;97892.00;;;16.06;100.00
49311;BME280;35177;45.900;5.946;2023-09-19T07:04:16;97890.94;;;15.97;100.00
49311;BME280;35177;45.900;5.946;2023-09-19T07:06:42;97892.19;;;15.93;100.00
49311;BME280;35177;45.900;5.946;2023-09-19T07:09:08;97887.91;;;16.02;100.00
49311;BME280;35177;45.900;5.946;2023-09-19T07:11:34;97894.66;;;16.06;100.00
49311;BME280;35177;45.900;5.946;2023-09-19T07:13:59;97894.88;;;16.14;100.00
49311;BME280;35177;45.900;5.946;2023-09-19T07:16:24;97892.94;;;16.16;100.00
49311;BME280;35177;45.900;5.946;2023-09-19T07:18:55;97890.78;;;16.10;100.00
49311;BME280;35177;45.900;5.946;2023-09-19T07:21:22;97894.09;;;16.02;100.00
49311;BME280;35177;45.900;5.946;2023-09-19T07:23:48;97890.50;;;16.13;100.00
49311;BME280;35177;45.900;5.946;2023-09-19T07:26:13;97899.44;;;16.23;100.00
49311;BME280;35177;45.900;5.946;2023-09-19T07:28:38;97901.72;;;16.27;100.00
49311;BME280;35177;45.900;5.946;2023-09-19T07:31:04;97898.44;;;16.35;100.00
49311;BME280;35177;45.900;5.946;2023-09-19T07:33:32;97907.28;;;16.35;100.00
49311;BME280;35177;45.900;5.946;2023-09-19T07:35:57;97904.22;;;16.40;100.00
49311;BME280;35177;45.900;5.946;2023-09-19T07:38:23;97908.13;;;16.36;100.00
49311;BME280;35177;45.900;5.946;2023-09-19T07:40:50;97903.84;;;16.24;100.00
49311;BME280;35177;45.900;5.946;2023-09-19T07:43:15;97902.69;;;16.26;100.00
49311;BME280;35177;45.900;5.946;2023-09-19T07:45:40;97904.94;;;16.21;100.00
49311;BME280;35177;45.900;5.946;2023-09-19T07:48:07;97913.47;;;16.36;100.00
49311;BME280;35177;45.900;5.946;2023-09-19T07:50:39;97917.69;;;16.38;100.00
49311;BME280;35177;45.900;5.946;2023-09-19T07:53:05;97919.00;;;16.44;100.00
49311;BME280;35177;45.900;5.946;2023-09-19T07:55:31;97920.69;;;16.45;100.00
49311;BME280;35177;45.900;5.946;2023-09-19T07:57:59;97928.00;;;16.43;100.00
49311;BME280;35177;45.900;5.946;2023-09-19T08:00:25;97918.88;;;16.45;100.00
49311;BME280;35177;45.900;5.946;2023-09-19T08:02:50;97922.53;;;16.44;100.00
49311;BME280;35177;45.900;5.946;2023-09-19T08:05:17;97928.22;;;16.51;100.00
49311;BME280;35177;45.900;5.946;2023-09-19T08:07:44;97927.44;;;16.60;100.00
49311;BME280;35177;45.900;5.946;2023-09-19T08:10:14;97922.09;;;16.60;100.00
49311;BME280;35177;45.900;5.946;2023-09-19T08:12:41;97932.34;;;16.55;100.00
49311;BME280;35177;45.900;5.946;2023-09-19T08:15:17;97922.81;;;16.62;100.00
49311;BME280;35177;45.900;5.946;2023-09-19T08:17:45;97926.88;;;16.77;100.00
49311;BME280;35177;45.900;5.946;2023-09-19T08:20:11;97932.63;;;16.82;100.00
49311;BME280;35177;45.900;5.946;2023-09-19T08:22:50;97933.00;;;16.89;100.00
49311;BME280;35177;45.900;5.946;2023-09-19T08:25:18;97940.06;;;16.99;100.00
49311;BME280;35177;45.900;5.946;2023-09-19T08:27:47;97941.78;;;17.00;100.00
49311;BME280;35177;45.900;5.946;2023-09-19T08:30:18;97941.31;;;16.95;100.00
49311;BME280;35177;45.900;5.946;2023-09-19T08:32:45;97942.53;;;16.91;100.00
49311;BME280;35177;45.900;5.946;2023-09-19T08:35:11;97939.41;;;17.07;100.00
49311;BME280;35177;45.900;5.946;2023-09-19T08:37:37;97936.66;;;17.18;100.00
49311;BME280;35177;45.900;5.946;2023-09-19T08:40:03;97934.88;;;17.28;100.00
49311;BME280;35177;45.900;5.946;2023-09-19T08:42:28;97945.72;;;17.36;100.00
49311;BME280;35177;45.900;5.946;2023-09-19T08:44:55;97940.06;;;17.29;100.00
49311;BME280;35177;45.900;5.946;2023-09-19T08:47:34;97943.72;;;17.59;100.00
49311;BME280;35177;45.900;5.946;2023-09-19T08:50:11;97949.84;;;17.50;100.00
49311;BME280;35177;45.900;5.946;2023-09-19T08:52:43;97946.94;;;17.53;100.00
49311;BME280;35177;45.900;5.946;2023-09-19T08:55:13;97942.38;;;17.74;99.78
49311;BME280;35177;45.900;5.946;2023-09-19T08:57:45;97943.31;;;17.54;97.13
49311;BME280;35177;45.900;5.946;2023-09-19T09:00:15;97944.34;;;17.72;97.42
49311;BME280;35177;45.900;5.946;2023-09-19T09:02:42;97942.63;;;17.71;98.87
49311;BME280;35177;45.900;5.946;2023-09-19T09:05:11;97946.28;;;17.60;98.24
49311;BME280;35177;45.900;5.946;2023-09-19T09:07:38;97945.44;;;17.60;99.15
49311;BME280;35177;45.900;5.946;2023-09-19T09:10:04;97939.84;;;17.42;98.45
49311;BME280;35177;45.900;5.946;2023-09-19T09:12:30;97930.75;;;17.54;96.02
49311;BME280;35177;45.900;5.946;2023-09-19T09:14:56;97932.22;;;17.68;96.89
49311;BME280;35177;45.900;5.946;2023-09-19T09:17:23;97934.81;;;17.98;95.38
49311;BME280;35177;45.900;5.946;2023-09-19T09:19:52;97926.94;;;18.25;98.49
49311;BME280;35177;45.900;5.946;2023-09-19T09:22:17;97932.56;;;18.32;90.77
49311;BME280;35177;45.900;5.946;2023-09-19T09:27:19;97928.63;;;18.17;91.68
49311;BME280;35177;45.900;5.946;2023-09-19T09:29:48;97924.69;;;18.30;93.82
49311;BME280;35177;45.900;5.946;2023-09-19T09:32:18;97920.72;;;18.34;94.18
49311;BME280;35177;45.900;5.946;2023-09-19T09:34:44;97915.09;;;18.37;92.92
49311;BME280;35177;45.900;5.946;2023-09-19T09:37:16;97923.53;;;18.42;92.11
49311;BME280;35177;45.900;5.946;2023-09-19T09:42:35;97914.66;;;18.70;92.17
49311;BME280;35177;45.900;5.946;2023-09-19T09:45:13;97914.50;;;18.82;92.53
49311;BME280;35177;45.900;5.946;2023-09-19T09:47:47;97919.75;;;18.54;89.20
49311;BME280;35177;45.900;5.946;2023-09-19T09:50:31;97917.66;;;18.48;89.94
49311;BME280;35177;45.900;5.946;2023-09-19T09:53:30;97910.44;;;18.39;91.70
49311;BME280;35177;45.900;5.946;2023-09-19T09:56:08;97900.41;;;18.22;93.04
49311;BME280;35177;45.900;5.946;2023-09-19T09:58:52;97901.81;;;18.26;92.36
49311;BME280;35177;45.900;5.946;2023-09-19T10:01:21;97907.19;;;18.26;90.98
49311;BME280;35177;45.900;5.946;2023-09-19T10:03:57;97906.06;;;18.19;93.19
49311;BME280;35177;45.900;5.946;2023-09-19T10:06:22;97906.47;;;18.24;91.77
49311;BME280;35177;45.900;5.946;2023-09-19T10:09:08;97902.94;;;18.71;89.40
49311;BME280;35177;45.900;5.946;2023-09-19T10:14:15;97902.31;;;19.33;85.48
49311;BME280;35177;45.900;5.946;2023-09-19T10:16:48;97891.75;;;19.59;84.29
49311;BME280;35177;45.900;5.946;2023-09-19T10:19:23;97895.38;;;19.68;84.90
49311;BME280;35177;45.900;5.946;2023-09-19T10:21:50;97884.72;;;19.58;84.43
49311;BME280;35177;45.900;5.946;2023-09-19T10:24:19;97895.72;;;19.82;84.77
49311;BME280;35177;45.900;5.946;2023-09-19T10:26:46;97890.84;;;19.95;82.46
49311;BME280;35177;45.900;5.946;2023-09-19T10:29:13;97885.13;;;19.98;82.34
49311;BME280;35177;45.900;5.946;2023-09-19T10:31:42;97886.75;;;19.91;81.41
49311;BME280;35177;45.900;5.946;2023-09-19T10:34:14;97885.69;;;20.02;80.40
49311;BME280;35177;45.900;5.946;2023-09-19T10:36:46;97891.56;;;20.58;80.81
49311;BME280;35177;45.900;5.946;2023-09-19T10:39:14;97880.44;;;20.28;77.00
49311;BME280;35177;45.900;5.946;2023-09-19T10:41:53;97889.91;;;20.40;77.62
49311;BME280;35177;45.900;5.946;2023-09-19T10:44:24;97887.13;;;20.67;77.53
49311;BME280;35177;45.900;5.946;2023-09-19T10:46:54;97887.75;;;21.04;74.05
49311;BME280;35177;45.900;5.946;2023-09-19T10:49:21;97891.94;;;21.32;74.45
49311;BME280;35177;45.900;5.946;2023-09-19T10:51:52;97890.13;;;20.90;72.49
49311;BME280;35177;45.900;5.946;2023-09-19T10:54:22;97883.44;;;21.19;74.42
49311;BME280;35177;45.900;5.946;2023-09-19T10:56:52;97890.06;;;21.33;73.12
49311;BME280;35177;45.900;5.946;2023-09-19T10:59:20;97890.06;;;21.33;72.20
49311;BME280;35177;45.900;5.946;2023-09-19T11:01:53;97888.22;;;20.82;75.62
49311;BME280;35177;45.900;5.946;2023-09-19T11:07:10;97877.50;;;21.41;77.23
49311;BME280;35177;45.900;5.946;2023-09-19T11:09:49;97869.84;;;20.95;73.90
49311;BME280;35177;45.900;5.946;2023-09-19T11:14:58;97861.88;;;21.95;71.24
49311;BME280;35177;45.900;5.946;2023-09-19T11:17:37;97865.63;;;22.18;70.93
49311;BME280;35177;45.900;5.946;2023-09-19T11:30:51;97836.97;;;22.33;67.11
49311;BME280;35177;45.900;5.946;2023-09-19T11:36:06;97837.31;;;22.62;64.44
49311;BME280;35177;45.900;5.946;2023-09-19T11:41:38;97843.38;;;22.72;63.93
49311;BME280;35177;45.900;5.946;2023-09-19T11:46:51;97831.88;;;22.87;65.61
49311;BME280;35177;45.900;5.946;2023-09-19T11:49:18;97827.69;;;22.60;67.06
49311;BME280;35177;45.900;5.946;2023-09-19T11:51:50;97833.56;;;22.79;67.40
49311;BME280;35177;45.900;5.946;2023-09-19T11:54:19;97829.59;;;23.14;65.91
49311;BME280;35177;45.900;5.946;2023-09-19T11:56:51;97835.94;;;22.91;63.95
49311;BME280;35177;45.900;5.946;2023-09-19T11:59:24;97832.16;;;23.08;67.58
49311;BME280;35177;45.900;5.946;2023-09-19T12:01:54;97821.69;;;23.05;63.66
49311;BME280;35177;45.900;5.946;2023-09-19T12:04:42;97827.03;;;22.74;63.98
49311;BME280;35177;45.900;5.946;2023-09-19T12:07:13;97811.50;;;22.52;63.47
49311;BME280;35177;45.900;5.946;2023-09-19T12:09:43;97815.81;;;23.01;63.75
49311;BME280;35177;45.900;5.946;2023-09-19T12:12:21;97807.63;;;22.70;62.10
49311;BME280;35177;45.900;5.946;2023-09-19T12:14:50;97811.66;;;22.42;63.02
49311;BME280;35177;45.900;5.946;2023-09-19T12:17:17;97810.66;;;22.75;59.73
49311;BME280;35177;45.900;5.946;2023-09-19T12:19:55;97800.19;;;23.27;56.75
49311;BME280;35177;45.900;5.946;2023-09-19T12:22:21;97810.13;;;23.35;60.55
49311;BME280;35177;45.900;5.946;2023-09-19T12:24:47;97803.19;;;22.94;59.01
49311;BME280;35177;45.900;5.946;2023-09-19T12:27:13;97797.38;;;23.13;58.37
49311;BME280;35177;45.900;5.946;2023-09-19T12:29:45;97806.28;;;22.66;60.10
49311;BME280;35177;45.900;5.946;2023-09-19T12:32:11;97796.88;;;22.62;63.11
49311;BME280;35177;45.900;5.946;2023-09-19T12:34:38;97798.16;;;22.83;63.42
49311;BME280;35177;45.900;5.946;2023-09-19T12:37:12;97790.06;;;22.58;61.61
49311;BME280;35177;45.900;5.946;2023-09-19T12:39:43;97792.16;;;22.00;63.26
49311;BME280;35177;45.900;5.946;2023-09-19T12:42:15;97780.66;;;22.38;63.66
49311;BME280;35177;45.900;5.946;2023-09-19T12:44:45;97790.94;;;22.51;62.71
49311;BME280;35177;45.900;5.946;2023-09-19T12:47:18;97783.56;;;22.37;62.54
49311;BME280;35177;45.900;5.946;2023-09-19T12:50:14;97782.19;;;22.33;62.47
49311;BME280;35177;45.900;5.946;2023-09-19T12:52:52;97771.41;;;22.49;62.84
49311;BME280;35177;45.900;5.946;2023-09-19T12:55:29;97773.59;;;22.53;64.11
49311;BME280;35177;45.900;5.946;2023-09-19T12:57:58;97763.97;;;22.43;63.42
49311;BME280;35177;45.900;5.946;2023-09-19T13:00:45;97770.50;;;22.72;64.81
49311;BME280;35177;45.900;5.946;2023-09-19T13:03:32;97775.75;;;22.58;60.77
49311;BME280;35177;45.900;5.946;2023-09-19T13:06:02;97765.00;;;22.09;64.06
49311;BME280;35177;45.900;5.946;2023-09-19T13:08:35;97773.56;;;22.37;65.15
49311;BME280;35177;45.900;5.946;2023-09-19T13:11:12;97766.16;;;22.55;63.77
49311;BME280;35177;45.900;5.946;2023-09-19T13:13:41;97761.09;;;22.68;62.45
49311;BME280;35177;45.900;5.946;2023-09-19T13:16:07;97757.91;;;22.41;62.25
49311;BME280;35177;45.900;5.946;2023-09-19T13:18:43;97754.06;;;22.19;62.60
49311;BME280;35177;45.900;5.946;2023-09-19T13:21:13;97758.06;;;22.47;61.72
49311;BME280;35177;45.900;5.946;2023-09-19T13:23:52;97755.03;;;22.66;63.04
49311;BME280;35177;45.900;5.946;2023-09-19T13:26:18;97750.53;;;22.98;59.80
49311;BME280;35177;45.900;5.946;2023-09-19T13:28:44;97753.09;;;23.30;59.01
49311;BME280;35177;45.900;5.946;2023-09-19T13:31:10;97744.22;;;23.52;55.76
49311;BME280;35177;45.900;5.946;2023-09-19T13:33:43;97744.06;;;23.76;59.17
49311;BME280;35177;45.900;5.946;2023-09-19T13:36:08;97739.13;;;22.79;59.31
49311;BME280;35177;45.900;5.946;2023-09-19T13:38:34;97736.72;;;22.93;59.08
49311;BME280;35177;45.900;5.946;2023-09-19T13:41:00;97732.88;;;22.87;58.53
49311;BME280;35177;45.900;5.946;2023-09-19T13:43:27;97729.56;;;23.08;53.90
49311;BME280;35177;45.900;5.946;2023-09-19T13:45:54;97725.41;;;23.28;56.54
49311;BME280;35177;45.900;5.946;2023-09-19T13:48:20;97725.88;;;23.09;59.03
49311;BME280;35177;45.900;5.946;2023-09-19T13:50:48;97721.97;;;23.42;58.29
49311;BME280;35177;45.900;5.946;2023-09-19T13:53:14;97728.88;;;23.44;57.05